createdAt,value
2022-08-02T00:00:58.982Z,990.67
2022-08-02T00:03:26.667Z,999.90
2022-08-02T00:05:54.320Z,999.90
2022-08-02T00:08:23.536Z,999.90
2022-08-02T00:10:51.341Z,999.90
2022-08-02T00:13:18.961Z,999.90
2022-08-02T00:15:46.570Z,997.03
2022-08-02T00:18:14.176Z,762.77
2022-08-02T00:20:41.805Z,999.90
2022-08-02T00:23:09.383Z,999.90
2022-08-02T00:25:55.603Z,951.40
2022-08-02T00:28:27.474Z,999.90
2022-08-02T00:30:56.222Z,720.17
2022-08-02T00:34:26.537Z,720.60
2022-08-02T00:36:11.493Z,927.93
2022-08-02T00:38:39.112Z,999.90
2022-08-02T00:41:13.125Z,999.90
2022-08-02T00:43:40.821Z,964.53
2022-08-02T00:46:08.493Z,999.90
2022-08-02T00:48:36.139Z,983.87
2022-08-02T00:51:09.168Z,999.90
2022-08-02T00:53:36.763Z,952.83
2022-08-02T00:56:04.775Z,987.37
2022-08-02T00:58:33.755Z,989.63
2022-08-02T01:01:02.033Z,978.07
2022-08-02T01:03:29.791Z,499.93
2022-08-02T01:06:10.940Z,997.50
2022-08-02T01:08:39.328Z,999.90
2022-08-02T01:11:06.978Z,999.90
2022-08-02T01:13:35.983Z,999.90
2022-08-02T01:16:11.123Z,999.90
2022-08-02T01:18:42.590Z,969.20
2022-08-02T01:21:44.731Z,999.90
2022-08-02T01:24:25.833Z,999.90
2022-08-02T01:26:56.920Z,999.90
2022-08-02T01:29:30.455Z,999.90
2022-08-02T01:32:03.450Z,999.90
2022-08-02T01:34:35.559Z,957.67
2022-08-02T01:37:06.830Z,901.97
2022-08-02T01:39:35.479Z,984.80
2022-08-02T01:42:04.640Z,999.90
2022-08-02T01:44:36.595Z,999.90
2022-08-02T01:47:06.833Z,999.90
2022-08-02T01:49:35.877Z,999.90
2022-08-02T01:52:22.730Z,999.90
2022-08-02T01:54:52.076Z,999.90
2022-08-02T01:57:21.153Z,999.90
2022-08-02T01:59:50.820Z,999.90
2022-08-02T02:02:19.263Z,999.90
2022-08-02T02:04:48.147Z,999.90
2022-08-02T02:07:17.026Z,999.90
2022-08-02T02:09:47.762Z,999.90
2022-08-02T02:12:19.530Z,999.90
2022-08-02T02:14:51.460Z,999.90
2022-08-02T02:18:11.865Z,999.90
2022-08-02T02:20:12.072Z,999.90
2022-08-02T02:22:39.703Z,999.90
2022-08-02T02:25:08.928Z,999.90
2022-08-02T02:27:40.834Z,999.90
2022-08-02T02:30:13.043Z,999.90
2022-08-02T02:32:42.815Z,999.90
2022-08-02T02:35:11.715Z,999.90
2022-08-02T02:37:39.864Z,999.90
2022-08-02T02:40:09.614Z,999.90
2022-08-02T02:42:37.746Z,999.90
2022-08-02T02:45:11.105Z,999.90
2022-08-02T02:47:41.157Z,999.90
2022-08-02T02:50:11.800Z,999.90
2022-08-02T02:52:41.089Z,999.90
2022-08-02T02:55:09.932Z,999.90
2022-08-02T02:57:38.179Z,999.90
2022-08-02T03:00:08.203Z,999.90
2022-08-02T03:02:36.044Z,999.90
2022-08-02T03:05:04.128Z,484.70
2022-08-02T03:07:34.924Z,999.90
2022-08-02T03:10:04.449Z,999.90
2022-08-02T03:12:32.651Z,999.90
2022-08-02T03:15:00.766Z,999.90
2022-08-02T03:17:38.663Z,999.90
2022-08-02T03:20:10.464Z,999.90
2022-08-02T03:22:39.628Z,983.43
2022-08-02T03:25:08.508Z,999.90
2022-08-02T03:27:36.383Z,999.90
2022-08-02T03:30:05.871Z,877.07
2022-08-02T03:32:33.815Z,789.27
2022-08-02T03:35:01.852Z,790.03
2022-08-02T03:37:30.625Z,999.90
2022-08-02T03:40:00.270Z,999.90
2022-08-02T03:42:28.880Z,999.90
2022-08-02T03:44:57.023Z,999.90
2022-08-02T03:47:25.374Z,999.90
2022-08-02T03:49:53.302Z,999.90
2022-08-02T03:52:21.121Z,999.90
2022-08-02T03:54:48.851Z,999.90
2022-08-02T03:57:17.957Z,999.90
2022-08-02T03:59:46.845Z,999.90
2022-08-02T04:02:14.755Z,978.67
2022-08-02T04:04:42.635Z,999.90
2022-08-02T04:07:10.323Z,999.90
2022-08-02T04:09:39.104Z,999.90
2022-08-02T04:12:07.016Z,999.90
2022-08-02T04:14:36.813Z,999.90
2022-08-02T04:17:07.340Z,999.90
2022-08-02T04:19:39.454Z,999.90
2022-08-02T04:22:09.209Z,999.90
2022-08-02T04:24:40.056Z,999.90
2022-08-02T04:27:19.680Z,999.90
2022-08-02T04:29:58.918Z,999.90
2022-08-02T04:32:26.550Z,999.90
2022-08-02T04:35:18.193Z,999.90
2022-08-02T04:38:05.487Z,999.90
2022-08-02T04:40:31.876Z,999.90
2022-08-02T04:43:00.225Z,999.90
2022-08-02T04:45:31.143Z,999.90
2022-08-02T04:48:06.568Z,999.90
2022-08-02T04:50:34.279Z,999.90
2022-08-02T04:53:01.969Z,999.90
2022-08-02T04:55:29.892Z,999.90
2022-08-02T04:57:58.549Z,999.90
2022-08-02T05:00:27.455Z,999.90
2022-08-02T05:02:56.863Z,999.90
2022-08-02T05:05:24.519Z,999.90
2022-08-02T05:07:52.229Z,999.90
2022-08-02T05:10:19.963Z,999.90
2022-08-02T05:12:47.598Z,999.90
2022-08-02T05:15:17.995Z,999.90
2022-08-02T05:17:47.647Z,999.90
2022-08-02T05:20:17.305Z,999.90
2022-08-02T05:22:45.551Z,999.90
2022-08-02T05:25:13.231Z,999.90
2022-08-02T05:27:40.922Z,999.90
2022-08-02T05:30:09.888Z,999.90
2022-08-02T05:32:44.194Z,17.57
2022-08-02T05:35:11.807Z,156.57
2022-08-02T05:37:42.170Z,170.23
2022-08-02T05:40:13.227Z,154.93
2022-08-02T05:42:41.306Z,167.70
2022-08-02T05:45:09.454Z,136.03
2022-08-02T05:47:37.124Z,354.20
2022-08-02T05:50:05.459Z,620.77
2022-08-02T05:52:42.907Z,999.90
2022-08-02T05:55:14.174Z,999.90
2022-08-02T05:57:45.676Z,49.47
2022-08-02T06:00:15.874Z,914.73
2022-08-02T06:02:59.414Z,999.90
2022-08-02T06:05:28.471Z,608.13
2022-08-02T06:07:59.555Z,638.03
2022-08-02T06:10:29.060Z,908.43
2022-08-02T06:13:04.268Z,864.60
2022-08-02T06:15:32.163Z,951.47
2022-08-02T06:18:00.012Z,948.90
2022-08-02T06:20:28.139Z,999.90
2022-08-02T06:22:57.639Z,846.97
2022-08-02T06:25:47.970Z,854.93
2022-08-02T06:28:14.824Z,987.60
2022-08-02T06:30:42.818Z,999.90
2022-08-02T06:33:10.575Z,999.90
2022-08-02T06:35:46.283Z,999.90
2022-08-02T06:38:20.184Z,999.90
2022-08-02T06:40:58.136Z,999.90
2022-08-02T06:43:32.582Z,999.90
2022-08-02T06:46:37.542Z,999.90
2022-08-02T06:48:47.904Z,999.90
2022-08-02T06:51:15.887Z,999.90
2022-08-02T06:53:45.435Z,999.90
2022-08-02T06:56:13.397Z,999.90
2022-08-02T06:58:41.069Z,999.90
2022-08-02T07:01:09.764Z,999.90
2022-08-02T07:03:38.504Z,999.90
2022-08-02T07:06:08.941Z,999.90
2022-08-02T07:08:38.383Z,999.90
2022-08-02T07:11:08.041Z,999.90
2022-08-02T07:13:39.705Z,25.07
2022-08-02T07:16:08.455Z,837.57
2022-08-02T07:18:36.516Z,342.80
2022-08-02T07:21:06.102Z,363.83
2022-08-02T07:23:36.745Z,190.07
2022-08-02T07:26:05.879Z,188.80
2022-08-02T07:28:34.987Z,237.90
2022-08-02T07:31:03.330Z,180.80
2022-08-02T07:33:37.493Z,367.97
2022-08-02T07:36:09.668Z,130.03
2022-08-02T07:38:44.311Z,198.33
2022-08-02T07:41:13.380Z,269.67
2022-08-02T07:43:42.407Z,263.83
2022-08-02T07:46:09.978Z,345.37
2022-08-02T07:48:37.591Z,105.93
2022-08-02T07:51:05.262Z,104.87
2022-08-02T07:53:51.076Z,405.30
2022-08-02T07:56:19.299Z,111.60
2022-08-02T07:58:48.246Z,304.63
2022-08-02T08:01:15.943Z,273.80
2022-08-02T08:03:43.563Z,275.70
2022-08-02T08:06:11.167Z,305.07
2022-08-02T08:08:38.739Z,294.37
2022-08-02T08:11:06.414Z,294.53
2022-08-02T08:13:34.946Z,371.07
2022-08-02T08:16:04.078Z,44.43
2022-08-02T08:18:31.659Z,295.13
2022-08-02T08:20:59.296Z,204.03
2022-08-02T08:23:28.498Z,219.23
2022-08-02T08:25:56.483Z,134.57
2022-08-02T08:28:24.045Z,229.93
2022-08-02T08:30:51.680Z,221.73
2022-08-02T08:33:20.675Z,226.27
2022-08-02T08:35:48.903Z,222.17
2022-08-02T08:38:17.395Z,227.10
2022-08-02T08:40:45.559Z,47.93
2022-08-02T08:43:14.716Z,221.87
2022-08-02T08:45:42.608Z,251.50
2022-08-02T08:48:13.801Z,237.43
2022-08-02T08:50:47.387Z,235.60
2022-08-02T08:53:15.280Z,64.23
2022-08-02T08:55:44.209Z,61.17
2022-08-02T08:58:12.676Z,63.73
2022-08-02T09:00:41.423Z,206.97
2022-08-02T09:03:10.193Z,220.83
2022-08-02T09:05:38.591Z,239.40
2022-08-02T09:08:07.955Z,205.60
2022-08-02T09:10:38.104Z,212.93
2022-08-02T09:13:38.162Z,486.83
2022-08-02T09:16:11.648Z,123.17
2022-08-02T09:18:43.620Z,226.93
2022-08-02T09:21:11.632Z,220.20
2022-08-02T09:23:41.833Z,135.40
2022-08-02T09:26:11.520Z,320.13
2022-08-02T09:28:41.563Z,280.50
2022-08-02T09:31:10.353Z,284.13
2022-08-02T09:33:39.178Z,291.63
2022-08-02T09:36:08.522Z,295.37
2022-08-02T09:38:37.840Z,321.13
2022-08-02T09:41:08.379Z,306.10
2022-08-02T09:44:03.871Z,328.80
2022-08-02T09:46:30.364Z,274.13
2022-08-02T09:48:59.741Z,74.40
2022-08-02T09:51:28.784Z,282.53
2022-08-02T09:54:07.943Z,73.67
2022-08-02T09:56:46.244Z,364.70
2022-08-02T09:59:14.684Z,346.03
2022-08-02T10:01:50.861Z,358.43
2022-08-02T10:04:28.502Z,97.03
2022-08-02T10:06:56.188Z,318.33
2022-08-02T10:09:23.800Z,188.63
2022-08-02T10:11:53.196Z,358.40
2022-08-02T10:14:21.344Z,771.20
2022-08-02T10:16:48.969Z,555.70
2022-08-02T10:19:17.235Z,639.20
2022-08-02T10:21:47.023Z,580.33
2022-08-02T10:24:16.482Z,639.77
2022-08-02T10:26:45.901Z,372.30
2022-08-02T10:29:17.499Z,629.27
2022-08-02T10:31:48.810Z,601.17
2022-08-02T10:34:20.000Z,599.43
2022-08-02T10:36:49.060Z,625.53
2022-08-02T10:39:16.935Z,667.83
2022-08-02T10:41:48.732Z,685.70
2022-08-02T10:44:25.362Z,635.43
2022-08-02T10:46:53.751Z,685.67
2022-08-02T10:49:40.068Z,372.53
2022-08-02T10:52:10.160Z,589.60
2022-08-02T10:54:40.254Z,633.53
2022-08-02T10:57:20.643Z,630.63
2022-08-02T10:59:50.390Z,642.23
2022-08-02T11:02:36.800Z,642.07
2022-08-02T11:05:10.960Z,632.33
2022-08-02T11:07:40.547Z,665.33
2022-08-02T11:10:40.068Z,648.20
2022-08-02T11:13:13.865Z,635.90
2022-08-02T11:15:55.228Z,639.20
2022-08-02T11:18:23.876Z,734.30
2022-08-02T11:21:21.873Z,738.77
2022-08-02T11:23:49.811Z,609.17
2022-08-02T11:26:45.780Z,678.17
2022-08-02T11:29:15.872Z,616.97
2022-08-02T11:31:46.388Z,691.77
2022-08-02T11:34:28.915Z,368.33
2022-08-02T11:37:02.388Z,620.10
2022-08-02T11:39:29.996Z,642.80
2022-08-02T11:41:58.910Z,718.77
2022-08-02T11:44:27.938Z,716.07
2022-08-02T11:46:58.617Z,663.63
2022-08-02T11:49:26.380Z,686.67
2022-08-02T11:52:00.333Z,707.53
2022-08-02T11:54:30.386Z,743.73
2022-08-02T11:57:14.427Z,743.50
2022-08-02T11:59:47.555Z,693.07
2022-08-02T12:02:17.540Z,708.73
2022-08-02T12:04:53.181Z,637.43
2022-08-02T12:07:34.338Z,728.70
2022-08-02T12:10:04.348Z,602.10
2022-08-02T12:12:31.949Z,657.47
2022-08-02T12:14:59.631Z,698.50
2022-08-02T12:17:47.780Z,658.30
2022-08-02T12:20:17.134Z,683.33
2022-08-02T12:22:45.599Z,681.77
2022-08-02T12:25:34.330Z,655.50
2022-08-02T12:28:17.814Z,665.97
2022-08-02T12:30:53.511Z,634.60
2022-08-02T12:33:23.745Z,603.37
2022-08-02T12:35:51.574Z,666.17
2022-08-02T12:38:19.220Z,715.33
2022-08-02T12:40:47.711Z,763.43
2022-08-02T12:43:20.902Z,828.17
2022-08-02T12:45:50.540Z,840.70
2022-08-02T12:48:18.999Z,793.33
2022-08-02T12:50:47.949Z,835.50
2022-08-02T12:53:17.860Z,269.37
2022-08-02T12:56:01.046Z,329.23
2022-08-02T12:58:31.423Z,277.00
2022-08-02T13:01:00.716Z,352.83
2022-08-02T13:04:11.629Z,311.43
2022-08-02T13:06:43.090Z,269.47
2022-08-02T13:09:13.570Z,292.80
2022-08-02T13:11:43.346Z,315.90
2022-08-02T13:14:11.385Z,334.83
2022-08-02T13:16:40.722Z,306.70
2022-08-02T13:19:08.364Z,347.57
2022-08-02T13:21:40.610Z,848.17
2022-08-02T13:24:39.254Z,493.87
2022-08-02T13:27:12.901Z,407.37
2022-08-02T13:29:40.506Z,513.20
2022-08-02T13:32:08.117Z,573.87
2022-08-02T13:34:35.977Z,614.93
2022-08-02T13:37:05.449Z,622.93
2022-08-02T13:39:33.380Z,689.83
2022-08-02T13:42:01.034Z,426.03
2022-08-02T13:44:28.719Z,528.67
2022-08-02T13:46:56.337Z,537.97
2022-08-02T13:49:50.600Z,499.97
2022-08-02T13:52:14.654Z,612.30
2022-08-02T13:54:42.607Z,637.70
2022-08-02T13:57:10.194Z,390.23
2022-08-02T13:59:56.654Z,651.87
2022-08-02T14:02:25.588Z,739.93
2022-08-02T14:04:53.191Z,19.53
2022-08-02T14:07:22.469Z,882.63
2022-08-02T14:09:50.040Z,889.40
2022-08-02T14:12:17.740Z,968.60
2022-08-02T14:14:45.807Z,902.63
2022-08-02T14:17:13.936Z,974.53
2022-08-02T14:19:41.547Z,518.93
2022-08-02T14:22:10.513Z,348.70
2022-08-02T14:24:42.433Z,811.43
2022-08-02T14:27:10.372Z,764.80
2022-08-02T14:29:38.020Z,855.40
2022-08-02T14:32:06.539Z,884.03
2022-08-02T14:34:34.136Z,934.90
2022-08-02T14:37:01.746Z,999.90
2022-08-02T14:39:43.067Z,996.83
2022-08-02T14:42:18.738Z,795.33
2022-08-02T14:44:46.432Z,949.07
2022-08-02T14:47:14.072Z,981.10
2022-08-02T14:49:43.474Z,995.30
2022-08-02T14:52:14.682Z,999.90
2022-08-02T14:54:43.049Z,525.67
2022-08-02T14:57:11.143Z,999.90
2022-08-02T14:59:42.555Z,999.90
2022-08-02T15:02:13.253Z,670.13
2022-08-02T15:04:42.946Z,999.90
2022-08-02T15:07:11.485Z,995.07
2022-08-02T15:09:39.783Z,970.87
2022-08-02T15:12:09.072Z,999.90
2022-08-02T15:14:36.672Z,999.90
2022-08-02T15:17:06.009Z,995.50
2022-08-02T15:19:58.943Z,999.90
2022-08-02T15:22:21.546Z,349.10
2022-08-02T15:24:49.773Z,999.90
2022-08-02T15:27:17.830Z,960.63
2022-08-02T15:29:46.956Z,999.90
2022-08-02T15:32:18.722Z,997.43
2022-08-02T15:34:46.690Z,664.10
2022-08-02T15:37:14.328Z,958.30
2022-08-02T15:39:41.949Z,999.90
2022-08-02T15:42:09.909Z,972.90
2022-08-02T15:44:39.032Z,948.73
2022-08-02T15:47:07.534Z,994.27
2022-08-02T15:49:40.870Z,999.90
2022-08-02T15:52:09.273Z,999.90
2022-08-02T15:54:36.855Z,987.57
2022-08-02T15:57:04.488Z,20.17
2022-08-02T15:59:32.096Z,999.77
2022-08-02T16:02:00.110Z,999.90
2022-08-02T16:04:27.834Z,999.90
2022-08-02T16:06:56.769Z,999.90
2022-08-02T16:09:24.352Z,999.90
2022-08-02T16:11:51.981Z,999.90
2022-08-02T16:14:19.579Z,999.90
2022-08-02T16:16:47.178Z,136.10
2022-08-02T16:19:47.461Z,999.90
2022-08-02T16:22:03.812Z,999.90
2022-08-02T16:24:31.679Z,999.90
2022-08-02T16:26:59.378Z,999.90
2022-08-02T16:29:27.040Z,999.90
2022-08-02T16:32:00.994Z,985.67
2022-08-02T16:34:44.864Z,999.90
2022-08-02T16:37:17.566Z,999.90
2022-08-02T16:39:45.172Z,999.90
2022-08-02T16:42:12.754Z,999.90
2022-08-02T16:44:53.551Z,999.90
2022-08-02T16:47:42.855Z,999.63
2022-08-02T16:50:11.133Z,999.90
2022-08-02T16:52:40.419Z,654.87
2022-08-02T16:55:11.320Z,781.87
2022-08-02T16:57:43.509Z,848.97
2022-08-02T17:00:15.557Z,892.90
2022-08-02T17:02:43.792Z,838.93
2022-08-02T17:05:14.402Z,970.83
2022-08-02T17:08:15.681Z,999.90
2022-08-02T17:10:33.469Z,962.97
2022-08-02T17:13:11.094Z,980.40
2022-08-02T17:16:17.278Z,981.83
2022-08-02T17:18:27.868Z,967.97
2022-08-02T17:20:56.313Z,970.80
2022-08-02T17:24:04.124Z,984.20
2022-08-02T17:26:13.468Z,989.77
2022-08-02T17:28:50.829Z,951.90
2022-08-02T17:31:29.678Z,977.10
2022-08-02T17:33:58.354Z,999.90
2022-08-02T17:36:26.205Z,998.63
2022-08-02T17:38:55.213Z,981.93
2022-08-02T17:41:37.726Z,918.43
2022-08-02T17:44:08.652Z,923.33
2022-08-02T17:46:37.192Z,989.67
2022-08-02T17:49:17.369Z,970.53
2022-08-02T17:52:15.466Z,973.70
2022-08-02T17:54:34.815Z,965.93
2022-08-02T17:57:02.495Z,994.97
2022-08-02T17:59:41.513Z,956.33
2022-08-02T18:02:11.300Z,916.23
2022-08-02T18:04:39.508Z,775.93
2022-08-02T18:07:09.352Z,905.10
2022-08-02T18:09:43.341Z,752.23
2022-08-02T18:12:14.191Z,837.77
2022-08-02T18:14:48.812Z,902.43
2022-08-02T18:17:16.751Z,975.63
2022-08-02T18:19:57.269Z,998.63
2022-08-02T18:22:31.126Z,940.43
2022-08-02T18:25:00.593Z,999.90
2022-08-02T18:27:39.090Z,989.57
2022-08-02T18:30:08.831Z,999.90
2022-08-02T18:33:55.982Z,999.90
2022-08-02T18:35:29.414Z,998.67
2022-08-02T18:38:03.527Z,991.90
2022-08-02T18:40:32.849Z,988.73
2022-08-02T18:43:03.473Z,987.23
2022-08-02T18:45:36.874Z,999.90
2022-08-02T18:48:22.536Z,995.17
2022-08-02T18:50:53.560Z,983.93
2022-08-02T18:53:28.306Z,999.90
2022-08-02T18:56:19.616Z,999.90
2022-08-02T18:58:59.616Z,999.90
2022-08-02T19:01:33.518Z,999.90
2022-08-02T19:04:03.848Z,999.90
2022-08-02T19:06:31.672Z,999.90
2022-08-02T19:09:05.667Z,999.90
2022-08-02T19:11:40.766Z,999.90
2022-08-02T19:14:09.170Z,999.90
2022-08-02T19:16:38.153Z,907.03
2022-08-02T19:19:06.333Z,907.43
2022-08-02T19:22:16.781Z,893.10
2022-08-02T19:24:22.105Z,916.90
2022-08-02T19:26:52.482Z,937.97
2022-08-02T19:29:25.190Z,726.63
2022-08-02T19:32:08.648Z,838.00
2022-08-02T19:34:58.414Z,915.27
2022-08-02T19:37:26.106Z,904.80
2022-08-02T19:40:05.574Z,906.33
2022-08-02T19:44:21.533Z,907.83
2022-08-02T19:45:49.065Z,778.37
2022-08-02T19:48:14.429Z,871.27
2022-08-02T19:50:44.215Z,863.03
2022-08-02T19:53:17.960Z,597.23
2022-08-02T19:56:01.177Z,835.47
2022-08-02T19:58:32.513Z,786.87
2022-08-02T20:01:00.405Z,913.87
2022-08-02T20:03:50.999Z,937.30
2022-08-02T20:06:17.681Z,811.60
2022-08-02T20:08:53.066Z,966.37
2022-08-02T20:11:24.951Z,961.03
2022-08-02T20:13:54.032Z,971.67
2022-08-02T20:16:28.346Z,969.30
2022-08-02T20:19:01.001Z,999.90
2022-08-02T20:21:35.748Z,999.90
2022-08-02T20:24:05.982Z,935.73
2022-08-02T20:26:35.466Z,999.90
2022-08-02T20:29:05.147Z,994.57
2022-08-02T20:31:33.191Z,999.90
2022-08-02T20:34:00.832Z,999.90
2022-08-02T20:36:28.895Z,999.90
2022-08-02T20:38:56.580Z,287.07
2022-08-02T20:41:37.329Z,988.17
2022-08-02T20:44:15.405Z,999.90
2022-08-02T20:46:44.833Z,999.90
2022-08-02T20:49:21.552Z,999.90
2022-08-02T20:51:50.843Z,329.07
2022-08-02T20:54:21.357Z,999.90
2022-08-02T20:56:50.634Z,999.90
2022-08-02T21:02:07.856Z,999.90
2022-08-02T21:04:41.409Z,999.90
2022-08-02T21:07:11.485Z,999.90
2022-08-02T21:09:53.849Z,999.90
2022-08-02T21:12:30.108Z,999.90
2022-08-02T21:14:59.713Z,999.90
2022-08-02T21:17:42.566Z,975.90
2022-08-02T21:20:16.852Z,999.90
2022-08-02T21:22:44.774Z,985.73
2022-08-02T21:25:15.658Z,999.90
2022-08-02T21:27:52.792Z,999.90
2022-08-02T21:30:24.143Z,999.90
2022-08-02T21:32:54.800Z,25.03
2022-08-02T21:35:25.386Z,310.47
2022-08-02T21:37:57.999Z,999.90
2022-08-02T21:40:26.134Z,987.90
2022-08-02T21:42:54.786Z,994.93
2022-08-02T21:45:24.020Z,999.90
2022-08-02T21:47:56.131Z,999.90
2022-08-02T21:50:23.783Z,23.07
2022-08-02T21:52:53.315Z,300.83
2022-08-02T21:55:23.956Z,980.20
2022-08-02T21:58:09.000Z,322.23
2022-08-02T22:00:37.996Z,988.97
2022-08-02T22:03:22.977Z,970.83
2022-08-02T22:05:50.996Z,959.90
2022-08-02T22:08:18.624Z,974.67
2022-08-02T22:11:04.831Z,995.77
2022-08-02T22:13:47.627Z,987.93
2022-08-02T22:16:18.305Z,285.10
2022-08-02T22:18:51.280Z,993.13
2022-08-02T22:21:20.409Z,982.40
2022-08-02T22:23:51.357Z,983.13
2022-08-02T22:26:19.786Z,920.57
2022-08-02T22:28:51.090Z,607.43
2022-08-02T22:31:40.337Z,621.30
2022-08-02T22:34:26.624Z,633.43
2022-08-02T22:36:56.073Z,556.73
2022-08-02T22:39:23.710Z,429.20
2022-08-02T22:42:06.615Z,617.63
2022-08-02T22:44:38.975Z,552.00
2022-08-02T22:47:14.962Z,95.43
2022-08-02T22:49:51.924Z,119.43
2022-08-02T22:52:22.406Z,111.00
2022-08-02T22:54:50.853Z,125.93
2022-08-02T22:57:30.145Z,118.27
2022-08-02T22:58:56.733Z,998.10
2022-08-02T22:59:59.106Z,124.80
2022-08-02T23:02:28.311Z,127.10
2022-08-02T23:04:57.892Z,64.77
2022-08-02T23:07:25.507Z,91.33
2022-08-02T23:09:53.150Z,64.87
2022-08-02T23:12:21.119Z,46.80
2022-08-02T23:14:50.191Z,58.33
2022-08-02T23:17:35.579Z,186.67
2022-08-02T23:20:06.016Z,188.33
2022-08-02T23:22:34.295Z,188.17
2022-08-02T23:25:02.263Z,180.37
2022-08-02T23:27:30.068Z,184.03
2022-08-02T23:29:57.887Z,174.93
2022-08-02T23:32:26.096Z,181.50
2022-08-02T23:34:53.943Z,128.50
2022-08-02T23:37:23.524Z,132.60
2022-08-02T23:39:51.507Z,161.30
2022-08-02T23:42:19.438Z,174.67
2022-08-02T23:44:47.183Z,180.03
2022-08-02T23:47:16.749Z,159.87
2022-08-02T23:49:44.521Z,127.83
2022-08-02T23:52:12.544Z,134.27
2022-08-02T23:54:41.538Z,125.43
2022-08-02T23:57:20.319Z,131.83
2022-08-02T23:59:49.715Z,190.23
